sensor_id;sensor_type;location;lat;lon;timestamp;P1;durP1;ratioP1;P2;durP2;ratioP2
19623;SDS011;9959;49.798;9.928;2023-04-03T00:01:15;4.30;;;3.30;;
19623;SDS011;9959;49.798;9.928;2023-04-03T00:03:43;9.63;;;3.70;;
19623;SDS011;9959;49.798;9.928;2023-04-03T00:06:11;6.57;;;4.25;;
19623;SDS011;9959;49.798;9.928;2023-04-03T00:08:39;9.90;;;4.72;;
19623;SDS011;9959;49.798;9.928;2023-04-03T00:11:07;11.32;;;3.67;;
19623;SDS011;9959;49.798;9.928;2023-04-03T00:13:34;6.30;;;3.97;;
19623;SDS011;9959;49.798;9.928;2023-04-03T00:16:01;11.50;;;4.35;;
19623;SDS011;9959;49.798;9.928;2023-04-03T00:18:29;7.32;;;4.18;;
19623;SDS011;9959;49.798;9.928;2023-04-03T00:20:56;6.60;;;3.97;;
19623;SDS011;9959;49.798;9.928;2023-04-03T00:23:23;7.60;;;3.85;;
19623;SDS011;9959;49.798;9.928;2023-04-03T00:25:51;7.38;;;4.35;;
19623;SDS011;9959;49.798;9.928;2023-04-03T00:28:19;7.85;;;4.22;;
19623;SDS011;9959;49.798;9.928;2023-04-03T00:30:47;7.82;;;3.90;;
19623;SDS011;9959;49.798;9.928;2023-04-03T00:33:20;10.23;;;4.38;;
19623;SDS011;9959;49.798;9.928;2023-04-03T00:35:52;9.30;;;4.03;;
19623;SDS011;9959;49.798;9.928;2023-04-03T00:38:20;11.68;;;4.35;;
19623;SDS011;9959;49.798;9.928;2023-04-03T00:40:48;10.13;;;4.15;;
19623;SDS011;9959;49.798;9.928;2023-04-03T00:43:22;6.35;;;3.88;;
19623;SDS011;9959;49.798;9.928;2023-04-03T00:45:52;9.43;;;3.90;;
19623;SDS011;9959;49.798;9.928;2023-04-03T00:48:34;7.82;;;4.10;;
19623;SDS011;9959;49.798;9.928;2023-04-03T00:51:06;5.72;;;3.85;;
19623;SDS011;9959;49.798;9.928;2023-04-03T00:53:48;6.68;;;4.10;;
19623;SDS011;9959;49.798;9.928;2023-04-03T00:56:15;10.88;;;4.65;;
19623;SDS011;9959;49.798;9.928;2023-04-03T01:01:15;6.85;;;3.95;;
19623;SDS011;9959;49.798;9.928;2023-04-03T01:03:44;11.52;;;4.55;;
19623;SDS011;9959;49.798;9.928;2023-04-03T01:06:11;8.02;;;3.67;;
19623;SDS011;9959;49.798;9.928;2023-04-03T01:08:45;5.65;;;3.88;;
19623;SDS011;9959;49.798;9.928;2023-04-03T01:11:14;9.93;;;4.03;;
19623;SDS011;9959;49.798;9.928;2023-04-03T01:13:41;6.13;;;3.97;;
19623;SDS011;9959;49.798;9.928;2023-04-03T01:16:11;6.30;;;4.18;;
19623;SDS011;9959;49.798;9.928;2023-04-03T01:18:39;5.97;;;3.92;;
19623;SDS011;9959;49.798;9.928;2023-04-03T01:23:59;6.20;;;3.58;;
19623;SDS011;9959;49.798;9.928;2023-04-03T01:26:40;9.07;;;4.47;;
19623;SDS011;9959;49.798;9.928;2023-04-03T01:29:08;9.05;;;4.20;;
19623;SDS011;9959;49.798;9.928;2023-04-03T01:34:02;6.68;;;4.07;;
19623;SDS011;9959;49.798;9.928;2023-04-03T01:36:30;10.77;;;4.47;;
19623;SDS011;9959;49.798;9.928;2023-04-03T01:38:58;5.47;;;4.13;;
19623;SDS011;9959;49.798;9.928;2023-04-03T01:41:26;7.22;;;4.30;;
19623;SDS011;9959;49.798;9.928;2023-04-03T01:43:54;9.40;;;4.10;;
19623;SDS011;9959;49.798;9.928;2023-04-03T01:46:21;9.30;;;4.18;;
19623;SDS011;9959;49.798;9.928;2023-04-03T01:48:51;5.40;;;3.70;;
19623;SDS011;9959;49.798;9.928;2023-04-03T01:51:18;6.65;;;3.95;;
19623;SDS011;9959;49.798;9.928;2023-04-03T01:56:18;8.80;;;4.35;;
19623;SDS011;9959;49.798;9.928;2023-04-03T01:58:46;6.45;;;4.03;;
19623;SDS011;9959;49.798;9.928;2023-04-03T02:01:14;7.13;;;4.32;;
19623;SDS011;9959;49.798;9.928;2023-04-03T02:03:42;8.27;;;4.07;;
19623;SDS011;9959;49.798;9.928;2023-04-03T02:06:14;7.88;;;4.45;;
19623;SDS011;9959;49.798;9.928;2023-04-03T02:08:42;9.20;;;4.05;;
19623;SDS011;9959;49.798;9.928;2023-04-03T02:11:09;6.40;;;3.72;;
19623;SDS011;9959;49.798;9.928;2023-04-03T02:13:39;5.15;;;3.97;;
19623;SDS011;9959;49.798;9.928;2023-04-03T02:16:10;8.13;;;4.50;;
19623;SDS011;9959;49.798;9.928;2023-04-03T02:18:38;7.82;;;4.35;;
19623;SDS011;9959;49.798;9.928;2023-04-03T02:21:05;10.50;;;3.90;;
19623;SDS011;9959;49.798;9.928;2023-04-03T02:23:32;6.45;;;4.53;;
19623;SDS011;9959;49.798;9.928;2023-04-03T02:26:06;7.18;;;4.07;;
19623;SDS011;9959;49.798;9.928;2023-04-03T02:28:35;14.35;;;4.20;;
19623;SDS011;9959;49.798;9.928;2023-04-03T02:31:02;10.20;;;4.13;;
19623;SDS011;9959;49.798;9.928;2023-04-03T02:33:30;7.68;;;4.30;;
19623;SDS011;9959;49.798;9.928;2023-04-03T02:35:57;11.57;;;4.22;;
19623;SDS011;9959;49.798;9.928;2023-04-03T02:38:25;8.65;;;4.35;;
19623;SDS011;9959;49.798;9.928;2023-04-03T02:40:53;9.38;;;4.63;;
19623;SDS011;9959;49.798;9.928;2023-04-03T02:43:20;6.28;;;4.25;;
19623;SDS011;9959;49.798;9.928;2023-04-03T02:45:49;10.43;;;4.50;;
19623;SDS011;9959;49.798;9.928;2023-04-03T02:48:16;9.07;;;4.18;;
19623;SDS011;9959;49.798;9.928;2023-04-03T02:50:46;7.95;;;4.25;;
19623;SDS011;9959;49.798;9.928;2023-04-03T02:53:14;6.25;;;4.47;;
19623;SDS011;9959;49.798;9.928;2023-04-03T02:55:44;7.22;;;4.05;;
19623;SDS011;9959;49.798;9.928;2023-04-03T02:58:12;6.93;;;4.15;;
19623;SDS011;9959;49.798;9.928;2023-04-03T03:00:40;7.30;;;4.00;;
19623;SDS011;9959;49.798;9.928;2023-04-03T03:03:08;6.88;;;4.05;;
19623;SDS011;9959;49.798;9.928;2023-04-03T03:05:35;9.10;;;4.57;;
19623;SDS011;9959;49.798;9.928;2023-04-03T03:08:02;6.75;;;4.05;;
19623;SDS011;9959;49.798;9.928;2023-04-03T03:10:30;7.43;;;4.55;;
19623;SDS011;9959;49.798;9.928;2023-04-03T03:12:57;13.13;;;4.45;;
19623;SDS011;9959;49.798;9.928;2023-04-03T03:15:24;7.82;;;4.03;;
19623;SDS011;9959;49.798;9.928;2023-04-03T03:17:55;7.10;;;5.00;;
19623;SDS011;9959;49.798;9.928;2023-04-03T03:20:26;6.25;;;4.38;;
19623;SDS011;9959;49.798;9.928;2023-04-03T03:22:53;10.23;;;4.68;;
19623;SDS011;9959;49.798;9.928;2023-04-03T03:25:22;10.85;;;5.32;;
19623;SDS011;9959;49.798;9.928;2023-04-03T03:27:48;10.65;;;4.90;;
19623;SDS011;9959;49.798;9.928;2023-04-03T03:30:15;10.15;;;5.18;;
19623;SDS011;9959;49.798;9.928;2023-04-03T03:32:43;11.70;;;4.88;;
19623;SDS011;9959;49.798;9.928;2023-04-03T03:35:09;9.32;;;4.85;;
19623;SDS011;9959;49.798;9.928;2023-04-03T03:37:36;9.02;;;5.22;;
19623;SDS011;9959;49.798;9.928;2023-04-03T03:40:03;9.20;;;4.93;;
19623;SDS011;9959;49.798;9.928;2023-04-03T03:42:30;6.65;;;4.78;;
19623;SDS011;9959;49.798;9.928;2023-04-03T03:44:58;8.88;;;4.13;;
19623;SDS011;9959;49.798;9.928;2023-04-03T03:47:25;8.77;;;4.63;;
19623;SDS011;9959;49.798;9.928;2023-04-03T03:49:52;7.85;;;4.20;;
19623;SDS011;9959;49.798;9.928;2023-04-03T03:52:25;7.40;;;4.60;;
19623;SDS011;9959;49.798;9.928;2023-04-03T03:54:52;10.45;;;4.55;;
19623;SDS011;9959;49.798;9.928;2023-04-03T03:57:19;6.65;;;3.92;;
19623;SDS011;9959;49.798;9.928;2023-04-03T03:59:47;12.13;;;4.18;;
19623;SDS011;9959;49.798;9.928;2023-04-03T04:02:15;8.05;;;4.05;;
19623;SDS011;9959;49.798;9.928;2023-04-03T04:04:45;9.75;;;4.35;;
19623;SDS011;9959;49.798;9.928;2023-04-03T04:07:12;6.00;;;4.18;;
19623;SDS011;9959;49.798;9.928;2023-04-03T04:09:42;6.20;;;4.22;;
19623;SDS011;9959;49.798;9.928;2023-04-03T04:12:09;9.45;;;4.20;;
19623;SDS011;9959;49.798;9.928;2023-04-03T04:14:36;8.35;;;4.78;;
19623;SDS011;9959;49.798;9.928;2023-04-03T04:17:03;9.00;;;4.50;;
19623;SDS011;9959;49.798;9.928;2023-04-03T04:19:36;9.13;;;4.60;;
19623;SDS011;9959;49.798;9.928;2023-04-03T04:22:06;7.70;;;4.35;;
19623;SDS011;9959;49.798;9.928;2023-04-03T04:24:33;8.82;;;4.57;;
19623;SDS011;9959;49.798;9.928;2023-04-03T04:27:05;11.48;;;4.70;;
19623;SDS011;9959;49.798;9.928;2023-04-03T04:29:33;7.28;;;4.50;;
19623;SDS011;9959;49.798;9.928;2023-04-03T04:32:10;8.00;;;4.30;;
19623;SDS011;9959;49.798;9.928;2023-04-03T04:34:37;6.05;;;4.05;;
19623;SDS011;9959;49.798;9.928;2023-04-03T04:37:04;6.40;;;4.45;;
19623;SDS011;9959;49.798;9.928;2023-04-03T04:39:31;10.10;;;4.53;;
19623;SDS011;9959;49.798;9.928;2023-04-03T04:41:58;7.30;;;4.50;;
19623;SDS011;9959;49.798;9.928;2023-04-03T04:44:26;7.88;;;4.72;;
19623;SDS011;9959;49.798;9.928;2023-04-03T04:46:53;7.75;;;4.78;;
19623;SDS011;9959;49.798;9.928;2023-04-03T04:49:20;8.23;;;4.28;;
19623;SDS011;9959;49.798;9.928;2023-04-03T04:51:47;10.55;;;4.50;;
19623;SDS011;9959;49.798;9.928;2023-04-03T04:54:17;8.38;;;4.57;;
19623;SDS011;9959;49.798;9.928;2023-04-03T04:56:46;11.05;;;4.75;;
19623;SDS011;9959;49.798;9.928;2023-04-03T04:59:12;8.13;;;4.03;;
19623;SDS011;9959;49.798;9.928;2023-04-03T05:01:40;7.07;;;5.05;;
19623;SDS011;9959;49.798;9.928;2023-04-03T05:04:06;13.25;;;4.80;;
19623;SDS011;9959;49.798;9.928;2023-04-03T05:06:33;8.50;;;4.65;;
19623;SDS011;9959;49.798;9.928;2023-04-03T05:09:02;7.70;;;5.00;;
19623;SDS011;9959;49.798;9.928;2023-04-03T05:11:37;9.73;;;5.03;;
19623;SDS011;9959;49.798;9.928;2023-04-03T05:14:05;7.63;;;4.57;;
19623;SDS011;9959;49.798;9.928;2023-04-03T05:16:33;9.35;;;5.13;;
19623;SDS011;9959;49.798;9.928;2023-04-03T05:19:01;5.35;;;4.15;;
19623;SDS011;9959;49.798;9.928;2023-04-03T05:21:29;6.75;;;4.40;;
19623;SDS011;9959;49.798;9.928;2023-04-03T05:23:59;12.88;;;5.00;;
19623;SDS011;9959;49.798;9.928;2023-04-03T05:26:29;10.27;;;3.90;;
19623;SDS011;9959;49.798;9.928;2023-04-03T05:28:57;7.20;;;4.15;;
19623;SDS011;9959;49.798;9.928;2023-04-03T05:31:24;8.23;;;4.75;;
19623;SDS011;9959;49.798;9.928;2023-04-03T05:33:51;8.88;;;4.40;;
19623;SDS011;9959;49.798;9.928;2023-04-03T05:36:18;6.80;;;4.35;;
19623;SDS011;9959;49.798;9.928;2023-04-03T05:38:45;7.80;;;4.45;;
19623;SDS011;9959;49.798;9.928;2023-04-03T05:41:12;11.63;;;4.60;;
19623;SDS011;9959;49.798;9.928;2023-04-03T05:43:43;8.60;;;4.57;;
19623;SDS011;9959;49.798;9.928;2023-04-03T05:46:15;7.18;;;4.15;;
19623;SDS011;9959;49.798;9.928;2023-04-03T05:48:43;8.98;;;4.28;;
19623;SDS011;9959;49.798;9.928;2023-04-03T05:51:15;7.10;;;3.63;;
19623;SDS011;9959;49.798;9.928;2023-04-03T05:53:48;9.70;;;4.95;;
19623;SDS011;9959;49.798;9.928;2023-04-03T05:56:22;7.15;;;4.82;;
19623;SDS011;9959;49.798;9.928;2023-04-03T05:58:51;11.80;;;4.65;;
19623;SDS011;9959;49.798;9.928;2023-04-03T06:01:18;9.70;;;4.40;;
19623;SDS011;9959;49.798;9.928;2023-04-03T06:03:45;7.90;;;4.43;;
19623;SDS011;9959;49.798;9.928;2023-04-03T06:06:13;7.70;;;5.00;;
19623;SDS011;9959;49.798;9.928;2023-04-03T06:08:42;8.02;;;4.22;;
19623;SDS011;9959;49.798;9.928;2023-04-03T06:11:10;10.35;;;4.78;;
19623;SDS011;9959;49.798;9.928;2023-04-03T06:13:37;9.45;;;4.70;;
19623;SDS011;9959;49.798;9.928;2023-04-03T06:16:04;7.18;;;4.57;;
19623;SDS011;9959;49.798;9.928;2023-04-03T06:18:40;6.85;;;3.80;;
19623;SDS011;9959;49.798;9.928;2023-04-03T06:21:08;8.75;;;4.38;;
19623;SDS011;9959;49.798;9.928;2023-04-03T06:23:35;12.35;;;4.68;;
19623;SDS011;9959;49.798;9.928;2023-04-03T06:26:04;10.80;;;4.45;;
19623;SDS011;9959;49.798;9.928;2023-04-03T06:28:31;5.82;;;3.75;;
19623;SDS011;9959;49.798;9.928;2023-04-03T06:30:58;5.65;;;3.33;;
19623;SDS011;9959;49.798;9.928;2023-04-03T06:33:26;7.18;;;3.53;;
19623;SDS011;9959;49.798;9.928;2023-04-03T06:35:59;7.25;;;4.78;;
19623;SDS011;9959;49.798;9.928;2023-04-03T06:38:26;10.75;;;4.63;;
19623;SDS011;9959;49.798;9.928;2023-04-03T06:40:56;8.73;;;4.43;;
19623;SDS011;9959;49.798;9.928;2023-04-03T06:43:24;9.20;;;4.20;;
19623;SDS011;9959;49.798;9.928;2023-04-03T06:45:51;6.00;;;4.00;;
19623;SDS011;9959;49.798;9.928;2023-04-03T06:48:18;10.68;;;4.47;;
19623;SDS011;9959;49.798;9.928;2023-04-03T06:50:46;14.40;;;4.10;;
19623;SDS011;9959;49.798;9.928;2023-04-03T06:53:14;9.38;;;4.28;;
19623;SDS011;9959;49.798;9.928;2023-04-03T06:55:42;8.47;;;4.20;;
19623;SDS011;9959;49.798;9.928;2023-04-03T06:58:09;9.02;;;4.70;;
19623;SDS011;9959;49.798;9.928;2023-04-03T07:00:39;6.05;;;3.97;;
19623;SDS011;9959;49.798;9.928;2023-04-03T07:03:06;8.38;;;4.03;;
19623;SDS011;9959;49.798;9.928;2023-04-03T07:05:36;6.57;;;4.82;;
19623;SDS011;9959;49.798;9.928;2023-04-03T07:08:04;9.77;;;4.68;;
19623;SDS011;9959;49.798;9.928;2023-04-03T07:10:31;9.10;;;4.93;;
19623;SDS011;9959;49.798;9.928;2023-04-03T07:12:58;13.20;;;4.40;;
19623;SDS011;9959;49.798;9.928;2023-04-03T07:15:28;8.90;;;4.22;;
19623;SDS011;9959;49.798;9.928;2023-04-03T07:17:56;12.95;;;3.72;;
19623;SDS011;9959;49.798;9.928;2023-04-03T07:20:23;9.13;;;3.53;;
19623;SDS011;9959;49.798;9.928;2023-04-03T07:22:56;10.32;;;4.85;;
19623;SDS011;9959;49.798;9.928;2023-04-03T07:25:23;5.70;;;3.80;;
19623;SDS011;9959;49.798;9.928;2023-04-03T07:27:50;10.15;;;4.18;;
19623;SDS011;9959;49.798;9.928;2023-04-03T07:30:17;8.63;;;4.20;;
19623;SDS011;9959;49.798;9.928;2023-04-03T07:32:45;7.47;;;3.90;;
19623;SDS011;9959;49.798;9.928;2023-04-03T07:35:12;12.88;;;4.40;;
19623;SDS011;9959;49.798;9.928;2023-04-03T07:37:39;7.57;;;4.57;;
19623;SDS011;9959;49.798;9.928;2023-04-03T07:40:07;8.27;;;4.40;;
19623;SDS011;9959;49.798;9.928;2023-04-03T07:42:35;6.75;;;4.35;;
19623;SDS011;9959;49.798;9.928;2023-04-03T07:45:03;9.30;;;4.30;;
19623;SDS011;9959;49.798;9.928;2023-04-03T07:47:31;9.43;;;3.97;;
19623;SDS011;9959;49.798;9.928;2023-04-03T07:49:58;9.02;;;4.00;;
19623;SDS011;9959;49.798;9.928;2023-04-03T07:52:25;7.53;;;4.13;;
19623;SDS011;9959;49.798;9.928;2023-04-03T07:54:52;7.82;;;3.67;;
19623;SDS011;9959;49.798;9.928;2023-04-03T07:57:19;5.95;;;3.30;;
19623;SDS011;9959;49.798;9.928;2023-04-03T07:59:49;7.95;;;3.72;;
19623;SDS011;9959;49.798;9.928;2023-04-03T08:02:16;9.43;;;4.68;;
19623;SDS011;9959;49.798;9.928;2023-04-03T08:04:43;7.43;;;3.80;;
19623;SDS011;9959;49.798;9.928;2023-04-03T08:07:10;7.00;;;3.85;;
19623;SDS011;9959;49.798;9.928;2023-04-03T08:09:44;6.90;;;3.90;;
19623;SDS011;9959;49.798;9.928;2023-04-03T08:12:21;5.65;;;3.20;;
19623;SDS011;9959;49.798;9.928;2023-04-03T08:14:48;9.88;;;3.67;;
19623;SDS011;9959;49.798;9.928;2023-04-03T08:17:15;5.80;;;3.30;;
19623;SDS011;9959;49.798;9.928;2023-04-03T08:19:42;6.10;;;3.58;;
19623;SDS011;9959;49.798;9.928;2023-04-03T08:22:10;7.95;;;3.60;;
19623;SDS011;9959;49.798;9.928;2023-04-03T08:24:37;8.82;;;3.72;;
19623;SDS011;9959;49.798;9.928;2023-04-03T08:27:12;10.40;;;3.95;;
19623;SDS011;9959;49.798;9.928;2023-04-03T08:29:39;8.32;;;3.17;;
19623;SDS011;9959;49.798;9.928;2023-04-03T08:32:06;6.38;;;3.80;;
19623;SDS011;9959;49.798;9.928;2023-04-03T08:34:33;6.03;;;3.40;;
19623;SDS011;9959;49.798;9.928;2023-04-03T08:37:01;7.63;;;3.28;;
19623;SDS011;9959;49.798;9.928;2023-04-03T08:39:28;5.47;;;2.80;;
19623;SDS011;9959;49.798;9.928;2023-04-03T08:41:56;9.00;;;3.50;;
19623;SDS011;9959;49.798;9.928;2023-04-03T08:50:00;8.88;;;3.40;;
19623;SDS011;9959;49.798;9.928;2023-04-03T08:55:03;9.05;;;2.78;;
19623;SDS011;9959;49.798;9.928;2023-04-03T08:57:42;7.03;;;3.22;;
19623;SDS011;9959;49.798;9.928;2023-04-03T09:00:19;7.25;;;3.10;;
19623;SDS011;9959;49.798;9.928;2023-04-03T09:02:50;5.32;;;2.88;;
19623;SDS011;9959;49.798;9.928;2023-04-03T09:05:29;5.50;;;2.92;;
19623;SDS011;9959;49.798;9.928;2023-04-03T09:08:14;5.50;;;2.90;;
19623;SDS011;9959;49.798;9.928;2023-04-03T09:14:07;5.22;;;2.75;;
19623;SDS011;9959;49.798;9.928;2023-04-03T09:21:58;6.90;;;2.92;;
19623;SDS011;9959;49.798;9.928;2023-04-03T09:24:41;4.57;;;2.60;;
19623;SDS011;9959;49.798;9.928;2023-04-03T09:27:10;7.72;;;2.92;;
19623;SDS011;9959;49.798;9.928;2023-04-03T09:29:39;5.20;;;3.08;;
19623;SDS011;9959;49.798;9.928;2023-04-03T09:32:21;5.60;;;2.63;;
19623;SDS011;9959;49.798;9.928;2023-04-03T09:34:54;6.97;;;2.80;;
19623;SDS011;9959;49.798;9.928;2023-04-03T09:37:51;4.95;;;2.65;;
19623;SDS011;9959;49.798;9.928;2023-04-03T09:40:46;6.55;;;2.85;;
19623;SDS011;9959;49.798;9.928;2023-04-03T09:43:21;6.55;;;2.70;;
19623;SDS011;9959;49.798;9.928;2023-04-03T09:45:51;5.82;;;2.92;;
19623;SDS011;9959;49.798;9.928;2023-04-03T09:48:20;6.82;;;2.60;;
19623;SDS011;9959;49.798;9.928;2023-04-03T09:55:56;5.13;;;2.70;;
19623;SDS011;9959;49.798;9.928;2023-04-03T09:58:28;4.70;;;2.67;;
19623;SDS011;9959;49.798;9.928;2023-04-03T10:06:35;5.25;;;2.85;;
19623;SDS011;9959;49.798;9.928;2023-04-03T10:11:57;4.65;;;2.40;;
19623;SDS011;9959;49.798;9.928;2023-04-03T10:14:32;4.55;;;2.40;;
19623;SDS011;9959;49.798;9.928;2023-04-03T10:17:18;5.93;;;2.70;;
19623;SDS011;9959;49.798;9.928;2023-04-03T10:36:07;3.72;;;2.30;;
19623;SDS011;9959;49.798;9.928;2023-04-03T10:38:48;4.80;;;2.15;;
19623;SDS011;9959;49.798;9.928;2023-04-03T10:47:22;4.60;;;2.40;;
19623;SDS011;9959;49.798;9.928;2023-04-03T10:50:02;5.68;;;2.80;;
19623;SDS011;9959;49.798;9.928;2023-04-03T10:55:48;5.47;;;2.53;;
19623;SDS011;9959;49.798;9.928;2023-04-03T11:01:15;3.88;;;2.30;;
19623;SDS011;9959;49.798;9.928;2023-04-03T11:03:49;4.47;;;2.42;;
19623;SDS011;9959;49.798;9.928;2023-04-03T11:06:21;5.13;;;2.53;;
19623;SDS011;9959;49.798;9.928;2023-04-03T11:08:56;4.85;;;2.28;;
19623;SDS011;9959;49.798;9.928;2023-04-03T11:11:31;3.50;;;1.92;;
19623;SDS011;9959;49.798;9.928;2023-04-03T11:16:34;2.72;;;2.25;;
19623;SDS011;9959;49.798;9.928;2023-04-03T11:21:56;5.68;;;2.50;;
19623;SDS011;9959;49.798;9.928;2023-04-03T11:24:29;4.70;;;2.10;;
19623;SDS011;9959;49.798;9.928;2023-04-03T11:27:00;4.70;;;2.30;;
19623;SDS011;9959;49.798;9.928;2023-04-03T11:29:37;4.65;;;2.30;;
19623;SDS011;9959;49.798;9.928;2023-04-03T11:34:44;4.68;;;2.25;;
19623;SDS011;9959;49.798;9.928;2023-04-03T11:42:43;2.97;;;2.03;;
19623;SDS011;9959;49.798;9.928;2023-04-03T11:45:15;2.78;;;2.00;;
19623;SDS011;9959;49.798;9.928;2023-04-03T11:47:53;2.88;;;2.28;;
19623;SDS011;9959;49.798;9.928;2023-04-03T11:55:46;3.13;;;1.50;;
19623;SDS011;9959;49.798;9.928;2023-04-03T11:58:16;4.00;;;1.98;;
19623;SDS011;9959;49.798;9.928;2023-04-03T12:01:02;2.88;;;1.90;;
19623;SDS011;9959;49.798;9.928;2023-04-03T12:11:33;6.40;;;2.00;;
19623;SDS011;9959;49.798;9.928;2023-04-03T12:14:04;4.50;;;1.60;;
19623;SDS011;9959;49.798;9.928;2023-04-03T12:29:15;3.28;;;1.90;;
19623;SDS011;9959;49.798;9.928;2023-04-03T12:31:47;3.42;;;1.90;;
19623;SDS011;9959;49.798;9.928;2023-04-03T12:34:18;3.25;;;1.60;;
19623;SDS011;9959;49.798;9.928;2023-04-03T12:37:09;2.70;;;1.73;;
19623;SDS011;9959;49.798;9.928;2023-04-03T12:40:05;3.78;;;1.80;;
19623;SDS011;9959;49.798;9.928;2023-04-03T12:45:16;3.67;;;1.58;;
19623;SDS011;9959;49.798;9.928;2023-04-03T12:47:49;4.03;;;2.00;;
19623;SDS011;9959;49.798;9.928;2023-04-03T12:52:50;2.65;;;1.73;;
19623;SDS011;9959;49.798;9.928;2023-04-03T12:55:22;5.28;;;1.77;;
19623;SDS011;9959;49.798;9.928;2023-04-03T12:57:49;2.13;;;1.73;;
19623;SDS011;9959;49.798;9.928;2023-04-03T13:03:02;3.88;;;1.90;;
19623;SDS011;9959;49.798;9.928;2023-04-03T13:05:32;4.47;;;1.83;;
19623;SDS011;9959;49.798;9.928;2023-04-03T13:08:04;2.83;;;1.98;;
19623;SDS011;9959;49.798;9.928;2023-04-03T13:13:18;4.90;;;2.22;;
19623;SDS011;9959;49.798;9.928;2023-04-03T13:15:47;3.85;;;1.98;;
19623;SDS011;9959;49.798;9.928;2023-04-03T13:18:23;2.95;;;1.83;;
19623;SDS011;9959;49.798;9.928;2023-04-03T13:20:58;2.55;;;1.83;;
19623;SDS011;9959;49.798;9.928;2023-04-03T13:23:39;4.18;;;1.88;;
19623;SDS011;9959;49.798;9.928;2023-04-03T13:26:09;3.10;;;1.90;;
19623;SDS011;9959;49.798;9.928;2023-04-03T13:28:38;2.83;;;1.80;;
19623;SDS011;9959;49.798;9.928;2023-04-03T13:31:28;3.05;;;1.80;;
19623;SDS011;9959;49.798;9.928;2023-04-03T13:33:56;1.88;;;1.65;;
19623;SDS011;9959;49.798;9.928;2023-04-03T13:36:41;2.85;;;1.75;;
19623;SDS011;9959;49.798;9.928;2023-04-03T13:41:44;6.50;;;2.20;;
19623;SDS011;9959;49.798;9.928;2023-04-03T13:44:17;4.63;;;2.08;;
19623;SDS011;9959;49.798;9.928;2023-04-03T13:46:48;2.95;;;1.80;;
19623;SDS011;9959;49.798;9.928;2023-04-03T13:49:20;2.97;;;1.90;;
19623;SDS011;9959;49.798;9.928;2023-04-03T13:52:21;3.10;;;1.70;;
19623;SDS011;9959;49.798;9.928;2023-04-03T13:54:56;2.47;;;1.75;;
19623;SDS011;9959;49.798;9.928;2023-04-03T14:02:54;2.85;;;1.70;;
19623;SDS011;9959;49.798;9.928;2023-04-03T14:05:23;3.70;;;2.08;;
19623;SDS011;9959;49.798;9.928;2023-04-03T14:07:53;5.80;;;1.95;;
19623;SDS011;9959;49.798;9.928;2023-04-03T14:10:20;3.83;;;2.10;;
19623;SDS011;9959;49.798;9.928;2023-04-03T14:12:48;4.47;;;2.00;;
19623;SDS011;9959;49.798;9.928;2023-04-03T14:15:22;2.92;;;1.67;;
19623;SDS011;9959;49.798;9.928;2023-04-03T14:17:54;2.38;;;1.80;;
19623;SDS011;9959;49.798;9.928;2023-04-03T14:20:28;5.85;;;2.13;;
19623;SDS011;9959;49.798;9.928;2023-04-03T14:22:55;4.25;;;1.70;;
19623;SDS011;9959;49.798;9.928;2023-04-03T14:25:23;3.70;;;1.80;;
19623;SDS011;9959;49.798;9.928;2023-04-03T14:27:53;4.43;;;1.80;;
19623;SDS011;9959;49.798;9.928;2023-04-03T14:30:23;2.63;;;1.50;;
19623;SDS011;9959;49.798;9.928;2023-04-03T14:32:53;3.03;;;1.60;;
19623;SDS011;9959;49.798;9.928;2023-04-03T14:35:20;3.72;;;1.63;;
19623;SDS011;9959;49.798;9.928;2023-04-03T14:37:48;3.20;;;1.77;;
19623;SDS011;9959;49.798;9.928;2023-04-03T14:40:18;2.88;;;1.58;;
19623;SDS011;9959;49.798;9.928;2023-04-03T14:42:47;4.40;;;1.90;;
19623;SDS011;9959;49.798;9.928;2023-04-03T14:45:17;2.72;;;1.60;;
19623;SDS011;9959;49.798;9.928;2023-04-03T14:47:46;3.80;;;1.80;;
19623;SDS011;9959;49.798;9.928;2023-04-03T14:50:16;4.10;;;1.70;;
19623;SDS011;9959;49.798;9.928;2023-04-03T14:52:45;3.67;;;1.80;;
19623;SDS011;9959;49.798;9.928;2023-04-03T14:55:15;4.35;;;2.00;;
19623;SDS011;9959;49.798;9.928;2023-04-03T15:00:35;3.10;;;1.98;;
19623;SDS011;9959;49.798;9.928;2023-04-03T15:03:06;7.78;;;2.30;;
19623;SDS011;9959;49.798;9.928;2023-04-03T15:05:36;3.03;;;1.70;;
19623;SDS011;9959;49.798;9.928;2023-04-03T15:08:03;2.97;;;1.75;;
19623;SDS011;9959;49.798;9.928;2023-04-03T15:10:30;3.25;;;1.88;;
19623;SDS011;9959;49.798;9.928;2023-04-03T15:12:58;5.15;;;2.00;;
19623;SDS011;9959;49.798;9.928;2023-04-03T15:15:28;5.28;;;2.17;;
19623;SDS011;9959;49.798;9.928;2023-04-03T15:17:56;3.38;;;1.85;;
19623;SDS011;9959;49.798;9.928;2023-04-03T15:20:27;3.53;;;1.60;;
19623;SDS011;9959;49.798;9.928;2023-04-03T15:22:57;4.47;;;2.17;;
19623;SDS011;9959;49.798;9.928;2023-04-03T15:25:30;4.05;;;1.75;;
19623;SDS011;9959;49.798;9.928;2023-04-03T15:27:59;3.95;;;2.17;;
19623;SDS011;9959;49.798;9.928;2023-04-03T15:30:34;3.70;;;2.42;;
19623;SDS011;9959;49.798;9.928;2023-04-03T15:33:06;2.85;;;1.58;;
19623;SDS011;9959;49.798;9.928;2023-04-03T15:35:34;2.85;;;1.50;;
19623;SDS011;9959;49.798;9.928;2023-04-03T15:38:01;3.13;;;1.80;;
19623;SDS011;9959;49.798;9.928;2023-04-03T15:40:28;4.72;;;1.60;;
19623;SDS011;9959;49.798;9.928;2023-04-03T15:42:57;2.88;;;1.55;;
19623;SDS011;9959;49.798;9.928;2023-04-03T15:45:24;5.63;;;2.00;;
19623;SDS011;9959;49.798;9.928;2023-04-03T15:47:52;2.40;;;1.30;;
19623;SDS011;9959;49.798;9.928;2023-04-03T15:50:19;6.95;;;1.42;;
19623;SDS011;9959;49.798;9.928;2023-04-03T15:52:46;2.90;;;1.67;;
19623;SDS011;9959;49.798;9.928;2023-04-03T15:55:12;2.28;;;1.40;;
19623;SDS011;9959;49.798;9.928;2023-04-03T15:57:39;2.08;;;1.40;;
19623;SDS011;9959;49.798;9.928;2023-04-03T16:00:10;3.95;;;1.90;;
19623;SDS011;9959;49.798;9.928;2023-04-03T16:02:39;5.53;;;1.73;;
19623;SDS011;9959;49.798;9.928;2023-04-03T16:05:10;3.30;;;1.60;;
19623;SDS011;9959;49.798;9.928;2023-04-03T16:07:39;3.15;;;1.45;;
19623;SDS011;9959;49.798;9.928;2023-04-03T16:10:07;2.85;;;1.98;;
19623;SDS011;9959;49.798;9.928;2023-04-03T16:12:37;7.53;;;2.22;;
19623;SDS011;9959;49.798;9.928;2023-04-03T16:15:08;3.33;;;1.60;;
19623;SDS011;9959;49.798;9.928;2023-04-03T16:17:43;5.07;;;1.80;;
19623;SDS011;9959;49.798;9.928;2023-04-03T16:20:11;5.55;;;1.58;;
19623;SDS011;9959;49.798;9.928;2023-04-03T16:22:41;3.72;;;1.58;;
19623;SDS011;9959;49.798;9.928;2023-04-03T16:25:09;5.65;;;2.03;;
19623;SDS011;9959;49.798;9.928;2023-04-03T16:27:38;4.15;;;1.80;;
19623;SDS011;9959;49.798;9.928;2023-04-03T16:30:06;4.00;;;2.10;;
19623;SDS011;9959;49.798;9.928;2023-04-03T16:32:34;4.93;;;1.90;;
19623;SDS011;9959;49.798;9.928;2023-04-03T16:35:03;5.18;;;1.60;;
19623;SDS011;9959;49.798;9.928;2023-04-03T16:37:33;5.25;;;1.98;;
19623;SDS011;9959;49.798;9.928;2023-04-03T16:40:02;3.28;;;1.48;;
19623;SDS011;9959;49.798;9.928;2023-04-03T16:42:32;4.47;;;1.60;;
19623;SDS011;9959;49.798;9.928;2023-04-03T16:45:03;6.35;;;1.63;;
19623;SDS011;9959;49.798;9.928;2023-04-03T16:47:32;2.67;;;1.30;;
19623;SDS011;9959;49.798;9.928;2023-04-03T16:50:00;3.88;;;1.63;;
19623;SDS011;9959;49.798;9.928;2023-04-03T16:52:28;5.07;;;2.42;;
19623;SDS011;9959;49.798;9.928;2023-04-03T16:54:54;4.43;;;1.60;;
19623;SDS011;9959;49.798;9.928;2023-04-03T16:57:22;3.42;;;2.00;;
19623;SDS011;9959;49.798;9.928;2023-04-03T16:59:51;3.67;;;1.75;;
19623;SDS011;9959;49.798;9.928;2023-04-03T17:02:20;3.75;;;1.83;;
19623;SDS011;9959;49.798;9.928;2023-04-03T17:04:51;5.57;;;1.77;;
19623;SDS011;9959;49.798;9.928;2023-04-03T17:07:22;3.38;;;1.67;;
19623;SDS011;9959;49.798;9.928;2023-04-03T17:09:53;5.32;;;1.80;;
19623;SDS011;9959;49.798;9.928;2023-04-03T17:12:23;3.67;;;1.90;;
19623;SDS011;9959;49.798;9.928;2023-04-03T17:14:51;6.65;;;1.88;;
19623;SDS011;9959;49.798;9.928;2023-04-03T17:17:20;3.28;;;1.73;;
19623;SDS011;9959;49.798;9.928;2023-04-03T17:19:49;5.72;;;2.00;;
19623;SDS011;9959;49.798;9.928;2023-04-03T17:22:16;4.22;;;2.03;;
19623;SDS011;9959;49.798;9.928;2023-04-03T17:24:44;4.25;;;2.00;;
19623;SDS011;9959;49.798;9.928;2023-04-03T17:27:12;2.10;;;1.70;;